1930 Tropical Cyclone NOT_NAMED (1930004S14149)


IBTrACS version v04r00. Visit IBTrACS website for data access.
Please direct all questions to the IBTrACS Q and A forum

Storm track - Intensity - Wind Radii - Intensity Data - Source Data - All data

Summary Information

Storm ID 1930004S14149
Start Jan 3 23Z
Landfall Jan 4 18Z, Jan 7 11Z
Max Intensity 45 kt (Jan 8 00Z), 992 mb (Jan 7 23Z)
End Jan 9 23Z
ATCF IDs
Track status Best track data.

Storm track plot

Map of storm track

Intensity plots

Map of storm track

Radial wind information

No radial wind information for this storm


Position and Intensity Table

BASIN ISO_TIME_________ NATURE LAT LON WMO PRES BOM PRES DS824 WIND DS824 PRES
degrees north degrees east mb mb kts mb
SP 1930-01-03 23:00:00 NR -14.00 149.20
SP 1930-01-04 00:00:00 TS -13.97 148.93
SP 03:00:00 TS -13.91 148.21
SP 06:00:00 TS -13.88 147.48
SP 09:00:00 TS -13.90 146.72
SP 11:00:00 TS -13.98 146.22
SP 12:00:00 TS -14.03 145.96
SP 15:00:00 TS -14.27 145.20
SP 17:00:00 TS -14.47 144.72
SP 18:00:00 TS -14.58 144.50
SP 21:00:00 TS -14.93 143.91
SP 23:00:00 TS -15.16 143.57
SP 1930-01-05 00:00:00 TS -15.26 143.43
SP 03:00:00 TS -15.54 143.07
SP 06:00:00 TS -15.78 142.78
SP 09:00:00 TS -15.97 142.53
SP 11:00:00 TS -16.08 142.38
SP 12:00:00 TS -16.13 142.29
SP 15:00:00 TS -16.25 142.02
SP 18:00:00 TS -16.34 141.72
SP 21:00:00 TS -16.40 141.36
SP 23:00:00 TS -16.42 141.06
SP 1930-01-06 00:00:00 TS -16.42 140.86
SP 01:00:00 NR -16.42 140.63
SP 03:00:00 NR -16.42 140.33
SP 06:00:00 NR -16.39 139.90
SP 09:00:00 NR -16.32 139.50
SP 11:00:00 NR -16.25 139.24
SP 12:00:00 NR -16.22 139.11
SP 15:00:00 NR -16.10 138.70
SP 18:00:00 NR -15.96 138.29
SP 21:00:00 NR -15.84 137.89
SP 23:00:00 NR -15.76 137.63
SP 23:30:00 NR -15.74 137.57
SP 1930-01-07 00:00:00 NR -15.73 137.51
SP 03:00:00 NR -15.63 137.14
SP 06:00:00 NR -15.56 136.78
SP 09:00:00 NR -15.51 136.43
SP 11:00:00 NR -15.50 136.19
SP 12:00:00 NR -15.50 136.06
SP 13:00:00 NR -15.51 135.94
SP 15:00:00 NR -15.52 135.67
SP 18:00:00 NR -15.57 135.27
SI 21:00:00 NR -15.66 134.88
SI 23:00:00 NR -15.74 134.63
SI 23:30:00 NR -15.76 134.57 992 992
SI 1930-01-08 00:00:00 TS -15.75 134.52 45 992
SI 03:00:00 NR -15.93 134.19
SI 06:00:00 NR -16.10 133.89
SI 09:00:00 NR -16.29 133.62
SI 11:00:00 NR -16.43 133.45
SI 12:00:00 NR -16.50 133.37
SI 15:00:00 NR -16.76 133.12
SI 18:00:00 NR -17.05 132.86
SI 20:30:00 NR -17.31 132.64
SI 21:00:00 NR -17.45 132.54
SI 23:00:00 NR -17.60 132.40
SI 1930-01-09 00:00:00 NR -17.67 132.34
SI 03:00:00 NR -17.86 132.17
SI 06:00:00 NR -18.05 132.02
SI 09:00:00 NR -18.25 131.89
SI 11:00:00 NR -18.40 131.80
SI 12:00:00 NR -18.48 131.75
SI 15:00:00 NR -18.73 131.61
SI 18:00:00 NR -19.01 131.46
SI 21:00:00 NR -19.30 131.30
SI 23:00:00 NR -19.50 131.20

Source Information

Agency Information
USA
TOKYO
CMA
HKO
NEWDELHI
REUNION
BOM IDCKMSTM0S.csv:Line=712:unnamed
NADI
WELLINGTON
DS824 aus_area.dat:69:NOT NAMED
TD9636 cons_worldwide_trop_cyclone_18710101-19891231-006:Line=1771
TD9635
NEUMANN
MLC

All available IBTrACS Data

SEASON BASIN SUBBASIN ISO_TIME_________ NATURE LAT LON WMO PRES WMO AGENCY DIST2LAND LANDFALL IFLAG USA SSHS BOM LAT BOM LON BOM PRES BOM PRES_METHOD DS824 LAT DS824 LON DS824 STAGE DS824 WIND DS824 PRES TD9636 LAT TD9636 LON TD9636 STAGE STORM SPEED STORM DIR
Year degrees north degrees east mb km km 1 degrees north degrees east mb degrees north degrees east kts mb degrees north degrees east kts degrees
1930 SP EA 1930-01-03 23:00:00 NR -14.00 149.20 bom 385 385 ______O___O___ -1 -13.90 149.10 -14.10 149.30 7 16 277
1930 SP EA 1930-01-04 00:00:00 TS -13.97 148.93 395 335 ______P__OP___ -1 -13.86 148.84 -13.90 148.80 TC -14.11 149.09 7 15 276
1930 SP EA 03:00:00 TS -13.91 148.21 335 267 ______P__PP___ -1 -13.75 148.05 -13.79 148.05 TC -14.14 148.46 7 14 274
1930 SP EA 06:00:00 TS -13.88 147.48 267 203 ______P__PP___ -1 -13.69 147.28 -13.73 147.30 TC -14.18 147.81 7 14 270
1930 SP EA 09:00:00 TS -13.90 146.72 194 155 ______P__PP___ -1 -13.72 146.51 -13.75 146.55 TC -14.24 147.10 7 15 265
1930 SP EA 11:00:00 TS -13.98 146.22 bom 147 132 ______O__PO___ -1 -13.80 146.00 -13.83 146.05 TC -14.30 146.60 7 15 260
1930 SP EA 12:00:00 TS -14.03 145.96 132 55 ______P__OP___ -1 -13.87 145.75 -13.90 145.80 TC -14.33 146.34 7 16 253
1930 SP EA 15:00:00 TS -14.27 145.20 55 15 ______P__PP___ -1 -14.15 145.03 -14.21 145.05 TC -14.46 145.51 7 15 250
1930 SP EA 17:00:00 TS -14.47 144.72 bom 10 0 ______O__PP___ -1 -14.40 144.60 -14.47 144.60 TC -14.56 144.96 7 15 245
1930 SP EA 18:00:00 TS -14.58 144.50 0 0 ______P__OP___ -1 -14.54 144.40 -14.60 144.40 TC -14.61 144.69 7 14 240
1930 SP EA 21:00:00 TS -14.93 143.91 0 0 ______P__PP___ -1 -15.00 143.89 -15.01 143.90 TC -14.78 143.94 7 13 237
1930 SP EA 23:00:00 TS -15.16 143.57 bom 0 0 ______O__PO___ -1 -15.30 143.60 -15.27 143.62 TC -14.90 143.50 7 11 234
1930 SP EA 1930-01-05 00:00:00 TS -15.26 143.43 0 0 ______P__OP___ -1 -15.43 143.47 -15.40 143.50 TC -14.96 143.32 7 9 232
1930 SP EA 03:00:00 TS -15.54 143.07 0 0 ______P__PP___ -1 -15.75 143.18 -15.71 143.13 TC -15.16 142.88 7 8 231
1930 SP EA 06:00:00 TS -15.78 142.78 0 0 ______P__PP___ -1 -16.00 142.99 -15.96 142.81 TC -15.37 142.53 7 7 230
1930 SP EA 09:00:00 TS -15.97 142.53 0 0 ______P__PP___ -1 -16.19 142.84 -16.15 142.54 TC -15.57 142.22 7 6 232
1930 SP EA 11:00:00 TS -16.08 142.38 0 0 ______P__PO___ -1 -16.29 142.76 -16.25 142.38 TC -15.70 142.00 7 6 236
1930 SP EA 12:00:00 TS -16.13 142.29 0 0 ______P__PP___ -1 -16.33 142.71 -16.29 142.30 TC -15.76 141.86 7 6 244
1930 SP EA 15:00:00 TS -16.25 142.02 0 0 ______P__PP___ -1 -16.42 142.54 -16.39 142.08 TC -15.95 141.43 7 6 248
1930 SP EA 18:00:00 TS -16.34 141.72 0 0 ______P__PP___ -1 -16.47 142.30 -16.45 141.86 TC -16.11 141.00 7 7 257
1930 SP EA 21:00:00 TS -16.40 141.36 0 0 ______P__PP___ -1 -16.49 141.93 -16.49 141.64 TC -16.24 140.57 7 8 263
1930 SP EA 23:00:00 TS -16.42 141.06 bom 21 21 ______O__PO___ -1 -16.50 141.60 -16.50 141.48 TC -16.30 140.30 7 10 267
1930 SP EA 1930-01-06 00:00:00 TS -16.42 140.86 42 42 ______P__OP___ -1 -16.50 141.40 -16.50 141.40 TC -16.32 140.18 7 12 270
1930 SP EA 01:00:00 NR -16.42 140.63 bom 72 72 ______O__PP___ -1 -16.50 141.20 -16.50 141.31 TC -16.34 140.06 7 10 270
1930 SP EA 03:00:00 NR -16.42 140.33 100 100 ______P__PP___ -1 -16.48 140.83 -16.50 141.13 TC -16.37 139.83 7 8 273
1930 SP EA 06:00:00 NR -16.39 139.90 100 84 ______P__PP___ -1 -16.41 140.32 -16.49 140.83 TC -16.37 139.49 7 8 278
1930 SP EA 09:00:00 NR -16.32 139.50 84 74 ______P__PP___ -1 -16.29 139.86 -16.47 140.50 TC -16.34 139.14 7 8 282
1930 SP EA 11:00:00 NR -16.25 139.24 70 70 ______P__PO___ -1 -16.20 139.58 -16.45 140.27 TC -16.30 138.90 7 8 285
1930 SP EA 12:00:00 NR -16.22 139.11 79 74 ______P__PP___ -1 -16.15 139.45 -16.44 140.14 TC -16.28 138.76 7 8 287
1930 SP EA 15:00:00 NR -16.10 138.70 79 67 ______P__PP___ -1 -16.00 139.06 -16.40 139.77 TC -16.19 138.33 7 8 288
1930 SP EA 18:00:00 NR -15.96 138.29 67 46 ______P__PP___ -1 -15.85 138.69 -16.35 139.36 TC -16.08 137.89 7 8 289
1930 SP EA 21:00:00 NR -15.84 137.89 49 44 ______P__PP___ -1 -15.70 138.32 -16.29 138.94 TC -15.97 137.46 7 8 288
1930 SP EA 23:00:00 NR -15.76 137.63 39 39 ______P__PO___ -1 -15.62 138.06 -16.25 138.65 TC -15.90 137.20 7 8 287
1930 SP EA 23:30:00 NR -15.74 137.57 bom 49 46 ______O__PP___ -1 -15.60 138.00 -16.24 138.58 TC -15.89 137.14 7 7 286
1930 SP EA 1930-01-07 00:00:00 NR -15.73 137.51 46 33 ______P__PP___ -1 -15.58 137.93 -16.22 138.50 TC -15.87 137.09 7 7 285
1930 SP EA 03:00:00 NR -15.63 137.14 44 24 ______P__PP___ -1 -15.48 137.51 -16.15 138.05 TC -15.79 136.77 7 7 283
1930 SP EA 06:00:00 NR -15.56 136.78 24 22 ______P__PP___ -1 -15.39 137.09 -16.07 137.58 TC -15.73 136.48 7 7 280
1930 SP EA 09:00:00 NR -15.51 136.43 15 0 ______P__PP___ -1 -15.33 136.66 -15.99 137.10 TC -15.70 136.20 7 7 276
1930 SP EA 11:00:00 NR -15.50 136.19 0 0 ______P__PO___ -1 -15.31 136.38 -15.93 136.77 TC -15.70 136.00 7 7 272
1930 SP EA 12:00:00 NR -15.50 136.06 0 0 ______P__PP___ -1 -15.30 136.24 -15.90 136.61 TC -15.70 135.89 7 7 269
1930 SP EA 13:00:00 NR -15.51 135.94 bom 0 0 ______O__PP___ -1 -15.30 136.10 -15.86 136.45 TC -15.71 135.77 7 8 267
1930 SP EA 15:00:00 NR -15.52 135.67 0 0 ______P__PP___ -1 -15.30 135.80 -15.80 136.11 TC -15.74 135.54 7 8 264
1930 SP EA 18:00:00 NR -15.57 135.27 0 0 ______P__PP___ -1 -15.34 135.36 -15.70 135.61 TC -15.81 135.18 7 8 259
1930 SI WA 21:00:00 NR -15.66 134.88 0 0 ______P__PP___ -1 -15.41 134.93 -15.60 135.11 TC -15.91 134.83 7 8 255
1930 SI WA 23:00:00 NR -15.74 134.63 0 0 ______P__PO___ -1 -15.48 134.66 -15.53 134.77 TC -16.00 134.60 7 7 252
1930 SI WA 23:30:00 NR -15.76 134.57 992 bom 0 0 ______O__PP___ -1 -15.50 134.60 992 4 -15.52 134.68 TC -16.02 134.55 7 6 265
1930 SI WA 1930-01-08 00:00:00 TS -15.75 134.52 0 0 ______P__OP___ -1 -15.52 134.54 -15.50 134.60 TC 45 992 -16.04 134.49 7 7 246
1930 SI WA 03:00:00 NR -15.93 134.19 0 0 ______P___P___ -1 -15.66 134.20 TC -16.19 134.17 7 7 240
1930 SI WA 06:00:00 NR -16.10 133.89 0 0 ______P___P___ -1 -15.83 133.91 TC -16.37 133.87 7 7 236
1930 SI WA 09:00:00 NR -16.29 133.62 0 0 ______P___P___ -1 -16.03 133.66 TC -16.56 133.58 7 6 232
1930 SI WA 11:00:00 NR -16.43 133.45 0 0 ______P___O___ -1 -16.17 133.51 TC -16.70 133.40 7 6 229
1930 SI WA 12:00:00 NR -16.50 133.37 0 0 ______P___P___ -1 -16.24 133.44 TC -16.77 133.31 7 7 224
1930 SI WA 15:00:00 NR -16.76 133.12 0 0 ______P___P___ -1 -16.46 133.24 TC -16.99 133.03 7 7 222
1930 SI WA 18:00:00 NR -17.05 132.86 0 0 ______P___P___ -1 -16.70 133.05 TC -17.22 132.77 7 8 220
1930 SI WA 20:30:00 NR -17.31 132.64 bom 0 0 ______O___P___ -1 -16.90 132.90 TC -17.41 132.58 7 10 218
1930 SI WA 21:00:00 NR -17.45 132.54 0 0 __________P___ -1 TC -17.45 132.54 7 9 219
1930 SI WA 23:00:00 NR -17.60 132.40 0 0 __________O___ -1 TC -17.60 132.40 7 6 222
1930 SI WA 1930-01-09 00:00:00 NR -17.67 132.34 0 0 __________P___ -1 TC -17.67 132.34 7 5 221
1930 SI WA 03:00:00 NR -17.86 132.17 0 0 __________P___ -1 TC -17.86 132.17 7 5 218
1930 SI WA 06:00:00 NR -18.05 132.02 0 0 __________P___ -1 TC -18.05 132.02 7 5 214
1930 SI WA 09:00:00 NR -18.25 131.89 0 0 __________P___ -1 TC -18.25 131.89 7 5 211
1930 SI WA 11:00:00 NR -18.40 131.80 0 0 __________O___ -1 TC -18.40 131.80 7 5 210
1930 SI WA 12:00:00 NR -18.48 131.75 0 0 __________P___ -1 TC -18.48 131.75 7 6 209
1930 SI WA 15:00:00 NR -18.73 131.61 0 0 __________P___ -1 TC -18.73 131.61 7 6 208
1930 SI WA 18:00:00 NR -19.01 131.46 0 0 __________P___ -1 TC -19.01 131.46 7 6 207
1930 SI WA 21:00:00 NR -19.30 131.30 0 0 __________P___ -1 TC -19.30 131.30 7 7 207
1930 SI WA 23:00:00 NR -19.50 131.20 0 __________O___ -1 TC -19.50 131.20 7 7 206